Time;durP1;ratioP1;P1;durP2;ratioP2;P2;SDS_P1;SDS_P2;PMS_P1;PMS_P2;Temp;Humidity;BMP_temperature;BMP_pressure;BME280_temperature;BME280_humidity;BME280_pressure;Samples;Min_cycle;Max_cycle;Signal;HPM_P1;HPM_P2
2021/01/17 00:02:46;;;;;;;22.42;12.48;;;;;;;-1.54;100.00;101199.19;5034562;28;20434;-74
2021/01/17 00:05:32;;;;;;;21.98;12.13;;;;;;;-1.84;100.00;101204.84;5034604;28;20029;-73
2021/01/17 00:08:18;;;;;;;22.13;12.55;;;;;;;-1.42;100.00;101209.06;5034522;28;20064;-73
2021/01/17 00:11:04;;;;;;;21.80;12.52;;;;;;;-1.75;100.00;101207.75;5034636;28;20053;-74
2021/01/17 00:13:50;;;;;;;25.15;13.25;;;;;;;-1.42;100.00;101211.63;5021191;28;20021;-73
2021/01/17 00:16:38;;;;;;;25.60;14.63;;;;;;;-0.87;100.00;101206.00;5034472;28;20018;-73
2021/01/17 00:19:24;;;;;;;26.00;15.27;;;;;;;-0.93;100.00;101208.34;5034947;28;20040;-74
2021/01/17 00:22:10;;;;;;;29.33;16.27;;;;;;;-0.80;100.00;101207.09;5033958;28;20375;-74
2021/01/17 00:24:55;;;;;;;27.98;16.10;;;;;;;-0.95;100.00;101224.56;5020380;28;20028;-72
2021/01/17 00:27:41;;;;;;;28.40;16.10;;;;;;;-1.12;100.00;101223.06;5019846;28;20083;-73
2021/01/17 00:30:31;;;;;;;27.48;16.10;;;;;;;-0.95;100.00;101233.16;5034835;28;20455;-74
2021/01/17 00:33:17;;;;;;;29.38;16.30;;;;;;;-0.98;100.00;101235.59;5035074;28;20033;-74
2021/01/17 00:36:03;;;;;;;32.67;17.73;;;;;;;-1.12;100.00;101233.34;5034446;28;20022;-74
2021/01/17 00:38:48;;;;;;;30.00;17.13;;;;;;;-0.99;100.00;101248.41;5034012;28;20025;-73
2021/01/17 00:41:35;;;;;;;36.08;19.58;;;;;;;-1.39;100.00;101243.47;5034205;28;20536;-73
2021/01/17 00:44:21;;;;;;;33.85;18.58;;;;;;;-1.27;100.00;101243.03;5034108;28;20529;-73
2021/01/17 00:47:09;;;;;;;31.88;18.35;;;;;;;-1.50;100.00;101251.56;5033968;28;20029;-74
2021/01/17 00:49:55;;;;;;;33.85;19.50;;;;;;;-1.50;100.00;101249.00;5034727;28;20365;-74
2021/01/17 00:52:41;;;;;;;36.80;19.83;;;;;;;-1.91;100.00;101252.50;5034511;28;20036;-73
2021/01/17 00:55:27;;;;;;;35.67;19.50;;;;;;;-1.53;100.00;101254.03;5034591;28;20033;-74
2021/01/17 00:58:12;;;;;;;36.47;20.17;;;;;;;-1.48;100.00;101261.06;5020138;28;20079;-74
2021/01/17 01:00:58;;;;;;;34.92;19.20;;;;;;;-1.64;100.00;101257.88;5034548;28;20452;-75
2021/01/17 01:03:44;;;;;;;35.72;19.23;;;;;;;-1.93;100.00;101260.97;5033957;28;20038;-74
2021/01/17 01:06:30;;;;;;;41.55;21.65;;;;;;;-1.64;100.00;101257.88;5034475;28;20029;-74
2021/01/17 01:09:16;;;;;;;39.30;21.77;;;;;;;-1.85;100.00;101257.88;5022398;28;20025;-74
2021/01/17 01:12:01;;;;;;;39.83;21.23;;;;;;;-1.68;100.00;101259.41;5023970;28;20103;-74
2021/01/17 01:14:47;;;;;;;39.08;21.92;;;;;;;-1.82;100.00;101254.53;5037982;28;20367;-74
2021/01/17 01:17:33;;;;;;;37.80;21.33;;;;;;;-1.61;100.00;101265.69;5038236;28;20064;-73
2021/01/17 01:20:19;;;;;;;38.58;20.88;;;;;;;-1.47;100.00;101261.97;5037379;28;20459;-74
2021/01/17 01:23:05;;;;;;;40.75;22.05;;;;;;;-1.37;100.00;101261.53;5037185;28;20133;-74
2021/01/17 01:25:50;;;;;;;39.35;21.20;;;;;;;-1.35;100.00;101257.31;5037762;28;20423;-73
2021/01/17 01:28:36;;;;;;;35.80;20.35;;;;;;;-1.99;100.00;101250.44;5022962;28;20022;-73
2021/01/17 01:31:25;;;;;;;36.40;19.70;;;;;;;-1.74;100.00;101248.91;5037251;28;20025;-72
2021/01/17 01:34:10;;;;;;;35.70;18.98;;;;;;;-1.07;100.00;101252.38;5037223;28;20345;-74
2021/01/17 01:36:56;;;;;;;35.45;21.45;;;;;;;-1.04;100.00;101258.50;5036843;28;20031;-73
2021/01/17 01:39:42;;;;;;;36.65;20.60;;;;;;;-1.47;100.00;101257.72;5037170;28;20032;-74
2021/01/17 01:42:27;;;;;;;35.97;20.65;;;;;;;-1.28;100.00;101256.72;5036990;28;20116;-73
2021/01/17 01:45:13;;;;;;;38.25;20.13;;;;;;;-1.19;100.00;101257.06;5037213;28;20033;-75
2021/01/17 01:47:59;;;;;;;40.45;21.77;;;;;;;-1.37;100.00;101257.22;5036502;28;20116;-74
2021/01/17 01:50:46;;;;;;;40.60;22.80;;;;;;;-1.33;100.00;101260.81;5037184;28;20103;-74
2021/01/17 01:53:32;;;;;;;41.10;21.50;;;;;;;-1.27;100.00;101251.66;5036636;28;20025;-73
2021/01/17 01:56:18;;;;;;;39.30;21.92;;;;;;;-1.47;100.00;101247.44;5022596;28;20025;-74
2021/01/17 01:59:04;;;;;;;41.20;22.33;;;;;;;-1.22;100.00;101256.94;5036458;28;20341;-75
2021/01/17 02:01:50;;;;;;;42.80;22.23;;;;;;;-1.25;100.00;101254.25;5036450;28;20060;-73
2021/01/17 02:04:36;;;;;;;42.60;22.38;;;;;;;-1.12;100.00;101249.63;5036359;28;20017;-75
2021/01/17 02:07:59;;;;;;;44.72;22.48;;;;;;;-2.00;100.00;101238.41;5036329;28;20087;-74
2021/01/17 02:10:45;;;;;;;41.70;21.90;;;;;;;-1.50;100.00;101241.28;5036747;28;20117;-74
2021/01/17 02:13:38;;;;;;;41.85;22.92;;;;;;;-1.77;100.00;101241.09;5035812;28;20459;-73
2021/01/17 02:16:24;;;;;;;43.25;23.13;;;;;;;-1.70;100.00;101235.38;5036100;28;20033;-74
2021/01/17 02:19:15;;;;;;;44.00;21.70;;;;;;;-1.68;100.00;101238.88;5035527;28;20124;-73
2021/01/17 02:22:02;;;;;;;43.83;23.73;;;;;;;-1.48;100.00;101243.09;5035664;28;20029;-74
2021/01/17 02:24:54;;;;;;;45.53;23.48;;;;;;;-1.44;100.00;101244.97;5036817;28;20029;-74
2021/01/17 02:27:42;;;;;;;41.67;22.88;;;;;;;-1.12;100.00;101243.63;5035616;28;20337;-73
2021/01/17 02:30:30;;;;;;;43.33;22.42;;;;;;;-1.44;100.00;101241.53;5036036;28;20041;-74
2021/01/17 02:33:21;;;;;;;41.65;22.77;;;;;;;-1.31;100.00;101243.75;5035672;28;20036;-73
2021/01/17 02:36:22;;;;;;;44.17;23.42;;;;;;;-1.30;100.00;101250.63;5035782;28;20497;-73
2021/01/17 02:39:17;;;;;;;41.38;21.90;;;;;;;-1.52;100.00;101241.22;5022518;28;20036;-75
2021/01/17 02:42:03;;;;;;;45.95;23.77;;;;;;;-1.62;100.00;101233.09;5036188;28;20025;-73
2021/01/17 02:44:50;;;;;;;46.03;23.25;;;;;;;-2.38;100.00;101233.38;5021670;28;20044;-74
2021/01/17 02:47:36;;;;;;;43.30;22.48;;;;;;;-2.29;100.00;101229.50;5035356;28;20037;-73
2021/01/17 02:50:22;;;;;;;51.60;25.25;;;;;;;-2.19;100.00;101226.53;5022258;28;20025;-74
2021/01/17 02:53:16;;;;;;;45.83;24.63;;;;;;;-2.23;100.00;101232.34;5035892;28;20030;-73
2021/01/17 02:56:06;;;;;;;47.10;23.15;;;;;;;-1.76;100.00;101232.56;5022103;28;20036;-76
2021/01/17 02:58:54;;;;;;;45.78;22.13;;;;;;;-1.95;100.00;101230.09;5035956;28;20017;-74
2021/01/17 03:01:43;;;;;;;41.10;21.88;;;;;;;-2.26;100.00;101233.88;5035943;28;20053;-75
2021/01/17 03:04:43;;;;;;;42.15;21.48;;;;;;;-2.40;100.00;101225.66;5021170;28;20029;-74
2021/01/17 03:07:31;;;;;;;40.95;20.73;;;;;;;-2.10;100.00;101229.47;5022054;28;20025;-73
2021/01/17 03:10:18;;;;;;;42.95;22.10;;;;;;;-2.26;100.00;101228.75;5021524;28;20029;-73
2021/01/17 03:13:04;;;;;;;40.08;21.17;;;;;;;-2.27;100.00;101232.16;5035461;28;20036;-74
2021/01/17 03:15:51;;;;;;;38.60;21.15;;;;;;;-1.80;100.00;101227.25;5035901;28;20037;-74
2021/01/17 03:18:36;;;;;;;41.58;21.10;;;;;;;-2.08;100.00;101226.97;5035609;28;20026;-74
2021/01/17 03:21:22;;;;;;;41.75;20.65;;;;;;;-2.06;100.00;101223.63;5020276;28;20033;-73
2021/01/17 03:24:08;;;;;;;40.25;20.85;;;;;;;-2.00;100.00;101217.88;5035392;28;20017;-74
2021/01/17 03:26:54;;;;;;;35.70;19.55;;;;;;;-2.29;100.00;101203.84;5035346;28;20025;-74
2021/01/17 03:29:40;;;;;;;38.95;20.15;;;;;;;-2.46;100.00;101209.09;5034367;28;20025;-74
2021/01/17 03:32:26;;;;;;;45.13;21.17;;;;;;;-2.27;100.00;101211.63;5034225;28;20029;-74
2021/01/17 03:35:11;;;;;;;41.30;20.77;;;;;;;-2.35;100.00;101215.56;5035175;28;20036;-74
2021/01/17 03:37:57;;;;;;;45.53;21.00;;;;;;;-2.26;100.00;101215.94;5034284;28;20104;-74
2021/01/17 03:40:43;;;;;;;39.95;20.55;;;;;;;-2.25;100.00;101212.56;5034228;28;20095;-74
2021/01/17 03:43:29;;;;;;;43.38;21.65;;;;;;;-2.36;100.00;101211.25;5035203;28;20120;-74
2021/01/17 03:46:14;;;;;;;62.13;35.70;;;;;;;-2.43;100.00;101210.13;5034703;28;20036;-74
2021/01/17 03:49:00;;;;;;;45.00;23.00;;;;;;;-2.03;100.00;101207.47;5035276;28;20363;-74
2021/01/17 03:51:46;;;;;;;54.28;28.90;;;;;;;-2.08;100.00;101203.88;5034044;28;20112;-73
2021/01/17 03:54:32;;;;;;;50.92;24.83;;;;;;;-1.92;100.00;101196.81;5021215;28;20041;-73
2021/01/17 03:57:18;;;;;;;40.92;23.05;;;;;;;-1.63;100.00;101203.09;5034885;28;20048;-74
2021/01/17 04:00:07;;;;;;;46.75;24.02;;;;;;;-1.54;100.00;101201.75;5034947;28;20025;-73
2021/01/17 04:02:53;;;;;;;44.05;23.20;;;;;;;-1.83;100.00;101193.75;5027792;28;20077;-74
2021/01/17 04:05:38;;;;;;;43.40;22.20;;;;;;;-1.91;100.00;101210.53;5034411;28;20112;-73
2021/01/17 04:08:24;;;;;;;41.58;21.67;;;;;;;-1.86;100.00;101209.03;5034351;28;20042;-73
2021/01/17 04:11:10;;;;;;;44.60;22.55;;;;;;;-1.86;100.00;101201.31;5034192;28;20403;-74
2021/01/17 04:13:55;;;;;;;46.22;23.40;;;;;;;-1.84;100.00;101202.28;5035991;28;20068;-72
2021/01/17 04:16:52;;;;;;;45.35;23.08;;;;;;;-1.74;100.00;101205.25;5033684;28;20029;-73
2021/01/17 04:19:37;;;;;;;45.67;21.65;;;;;;;-1.57;100.00;101204.22;5034660;28;20057;-75
2021/01/17 04:22:23;;;;;;;44.58;22.98;;;;;;;-1.92;100.00;101203.66;5034074;28;20028;-73
2021/01/17 04:25:10;;;;;;;41.90;21.52;;;;;;;-2.34;100.00;101201.91;5034403;28;20026;-73
2021/01/17 04:27:56;;;;;;;41.85;22.25;;;;;;;-2.47;100.00;101202.22;5034700;28;20378;-74
2021/01/17 04:30:42;;;;;;;49.17;23.75;;;;;;;-2.37;100.00;101209.50;5033559;28;20064;-74
2021/01/17 04:33:28;;;;;;;44.15;23.17;;;;;;;-2.02;100.00;101201.53;5032745;28;20021;-74
2021/01/17 04:36:14;;;;;;;44.90;23.35;;;;;;;-2.26;100.00;101206.56;5034238;28;20021;-75
2021/01/17 04:39:00;;;;;;;46.60;23.98;;;;;;;-2.11;100.00;101214.88;5033951;28;20025;-74
2021/01/17 04:41:46;;;;;;;46.38;23.92;;;;;;;-1.84;100.00;101217.69;5034338;28;20029;-73
2021/01/17 04:44:34;;;;;;;43.58;23.92;;;;;;;-1.82;100.00;101221.16;5037244;28;20519;-72
2021/01/17 04:47:35;;;;;;;44.20;22.75;;;;;;;-1.61;100.00;101234.88;5092110;27;20353;-73
2021/01/17 04:50:21;;;;;;;43.60;22.17;;;;;;;-2.37;100.00;101230.88;5091854;28;20036;-74
2021/01/17 04:53:07;;;;;;;45.97;23.05;;;;;;;-1.89;100.00;101237.16;5091509;28;20031;-73
2021/01/17 04:56:17;;;;;;;43.00;22.35;;;;;;;-2.38;100.00;101239.41;5090804;28;20031;-74
2021/01/17 04:59:12;;;;;;;43.63;22.20;;;;;;;-2.11;100.00;101235.41;5090259;28;20039;-73
2021/01/17 05:02:16;;;;;;;43.15;22.30;;;;;;;-2.14;100.00;101236.97;5090920;28;20423;-74
2021/01/17 05:05:23;;;;;;;46.67;22.55;;;;;;;-2.45;100.00;101236.53;5090437;28;20040;-73
2021/01/17 05:08:27;;;;;;;42.33;22.25;;;;;;;-2.11;100.00;101245.69;5090773;28;20395;-73
2021/01/17 05:11:32;;;;;;;48.17;23.40;;;;;;;-2.35;100.00;101234.41;5090104;28;20024;-73
2021/01/17 05:14:22;;;;;;;45.03;22.77;;;;;;;-2.55;100.00;101231.78;5091349;28;20113;-74
2021/01/17 05:17:09;;;;;;;47.55;23.10;;;;;;;-2.41;100.00;101239.25;5090092;28;20044;-73
2021/01/17 05:19:55;;;;;;;48.33;22.77;;;;;;;-2.25;100.00;101240.81;5126463;28;20055;-74
2021/01/17 05:22:43;;;;;;;49.33;23.50;;;;;;;-2.52;100.00;101239.63;5115586;28;20023;-75
2021/01/17 05:25:29;;;;;;;51.53;24.48;;;;;;;-2.41;100.00;101239.25;5116016;28;20020;-74
2021/01/17 05:28:15;;;;;;;53.78;25.50;;;;;;;-2.45;100.00;101236.53;5130651;28;20023;-73
2021/01/17 05:31:01;;;;;;;47.05;24.05;;;;;;;-2.54;100.00;101233.53;5131241;28;20114;-74
2021/01/17 05:33:47;;;;;;;49.95;23.75;;;;;;;-2.43;100.00;101237.44;5131444;28;20027;-74
2021/01/17 05:36:32;;;;;;;51.58;26.17;;;;;;;-2.30;100.00;101234.56;5130034;28;20023;-74
2021/01/17 05:39:18;;;;;;;54.05;25.67;;;;;;;-2.24;100.00;101238.31;5132012;28;20034;-74
2021/01/17 05:42:08;;;;;;;49.22;24.63;;;;;;;-2.98;100.00;101231.63;5130206;28;20023;-73
2021/01/17 05:44:55;;;;;;;47.80;24.42;;;;;;;-2.46;100.00;101229.63;5131777;28;20454;-74
2021/01/17 05:47:55;;;;;;;50.70;25.05;;;;;;;-2.83;100.00;101223.72;5129695;28;20043;-74
2021/01/17 05:50:45;;;;;;;52.47;24.55;;;;;;;-2.72;100.00;101235.31;5131049;28;20038;-74
2021/01/17 05:53:32;;;;;;;56.22;26.75;;;;;;;-2.72;100.00;101237.88;5131123;28;20427;-73
2021/01/17 05:56:18;;;;;;;51.50;25.25;;;;;;;-2.35;100.00;101233.50;5130814;28;20019;-74
2021/01/17 05:59:04;;;;;;;50.95;25.08;;;;;;;-2.05;100.00;101245.06;5116816;28;20359;-74
2021/01/17 06:01:50;;;;;;;48.03;24.20;;;;;;;-2.52;100.00;101248.22;5117380;28;20367;-73
2021/01/17 06:04:38;;;;;;;47.90;23.98;;;;;;;-2.39;100.00;101247.03;5101743;28;20031;-75
2021/01/17 06:07:29;;;;;;;50.05;24.50;;;;;;;-2.13;100.00;101255.00;5117290;28;20020;-73
2021/01/17 06:10:22;;;;;;;50.10;24.77;;;;;;;-2.32;100.00;101255.06;5116774;28;20451;-74
2021/01/17 06:13:09;;;;;;;50.67;24.80;;;;;;;-2.62;100.00;101261.44;5117200;28;20027;-73
2021/01/17 06:15:55;;;;;;;54.95;24.58;;;;;;;-2.53;100.00;101263.53;5116510;28;20024;-74
2021/01/17 06:18:43;;;;;;;48.58;24.35;;;;;;;-2.83;100.00;101259.63;5102823;28;20032;-73
2021/01/17 06:21:30;;;;;;;50.40;24.58;;;;;;;-2.80;100.00;101259.75;5116885;28;20019;-73
2021/01/17 06:24:17;;;;;;;62.05;31.25;;;;;;;-2.64;100.00;101251.91;5117254;28;20486;-73
2021/01/17 06:27:05;;;;;;;57.45;29.20;;;;;;;-2.19;100.00;101253.88;5116514;28;20031;-74
2021/01/17 06:29:50;;;;;;;61.03;30.65;;;;;;;-1.99;100.00;101258.13;5101958;28;20355;-75
2021/01/17 06:32:37;;;;;;;64.63;32.40;;;;;;;-1.85;100.00;101254.44;5117577;28;20031;-74
2021/01/17 06:35:34;;;;;;;74.20;36.45;;;;;;;-1.88;100.00;101251.75;5116695;28;20031;-74
2021/01/17 06:38:21;;;;;;;76.65;37.55;;;;;;;-1.74;100.00;101254.06;5116288;28;20034;-74
2021/01/17 06:41:08;;;;;;;85.22;41.53;;;;;;;-1.68;100.00;101256.00;5116664;28;20031;-73
2021/01/17 06:44:04;;;;;;;80.18;40.08;;;;;;;-1.58;100.00;101258.97;5115624;28;20028;-73
2021/01/17 06:46:50;;;;;;;82.43;39.00;;;;;;;-1.55;100.00;101253.97;5115408;28;20116;-74
2021/01/17 06:49:36;;;;;;;76.97;37.88;;;;;;;-1.56;100.00;101253.91;5101498;28;20035;-76
2021/01/17 06:52:22;;;;;;;65.80;34.40;;;;;;;-1.41;100.00;101257.94;5099875;28;20024;-73
2021/01/17 06:55:19;;;;;;;67.75;33.63;;;;;;;-1.60;100.00;101257.16;5115130;28;20035;-74
2021/01/17 06:58:13;;;;;;;68.57;34.70;;;;;;;-1.17;100.00;101264.00;5114859;28;20032;-74
2021/01/17 07:01:04;;;;;;;51.25;27.60;;;;;;;-1.10;100.00;101267.69;5115572;28;20031;-73
2021/01/17 07:03:50;;;;;;;48.15;26.73;;;;;;;-1.48;100.00;101257.66;5114242;28;20093;-73
2021/01/17 07:06:56;;;;;;;51.72;26.45;;;;;;;-0.91;100.00;101267.56;5114993;28;20054;-73
2021/01/17 07:09:58;;;;;;;48.65;25.08;;;;;;;-1.36;100.00;101265.84;5113659;28;20131;-73
2021/01/17 07:12:50;;;;;;;53.95;27.23;;;;;;;-0.91;100.00;101265.00;5115312;28;20032;-73
2021/01/17 07:15:40;;;;;;;54.63;26.88;;;;;;;-1.36;100.00;101266.69;5114676;28;20573;-73
2021/01/17 07:18:35;;;;;;;53.80;27.25;;;;;;;-0.87;100.00;101264.28;5115060;28;20039;-74
2021/01/17 07:21:23;;;;;;;56.60;28.95;;;;;;;-0.52;100.00;101256.13;5114211;28;20042;-75
2021/01/17 07:24:09;;;;;;;47.47;25.50;;;;;;;-0.48;100.00;101264.00;5114047;28;20126;-73
2021/01/17 07:27:14;;;;;;;44.53;24.70;;;;;;;-0.24;100.00;101254.56;5115328;28;20039;-75
2021/01/17 07:29:59;;;;;;;48.65;25.80;;;;;;;-0.59;100.00;101260.16;5114100;28;20428;-73
2021/01/17 07:32:55;;;;;;;49.42;26.33;;;;;;;-0.94;100.00;101272.56;5114942;28;20459;-74
2021/01/17 07:35:44;;;;;;;52.88;28.58;;;;;;;-1.51;100.00;101267.78;5113937;28;20356;-73
2021/01/17 07:38:34;;;;;;;52.67;27.75;;;;;;;-1.25;100.00;101270.56;5114421;28;20031;-73
2021/01/17 07:41:28;;;;;;;55.35;27.35;;;;;;;-0.71;100.00;101269.16;5114112;28;20037;-74
2021/01/17 07:44:17;;;;;;;54.58;29.00;;;;;;;-0.84;100.00;101272.97;5115326;28;20100;-74
2021/01/17 07:47:11;;;;;;;53.72;27.98;;;;;;;-0.22;100.00;101273.53;5100589;28;20039;-74
2021/01/17 07:49:57;;;;;;;52.65;28.70;;;;;;;-0.39;100.00;101271.19;5115444;28;20023;-74
2021/01/17 07:52:55;;;;;;;48.95;26.60;;;;;;;-1.22;100.00;101277.50;5114933;28;20475;-74
2021/01/17 07:55:42;;;;;;;47.78;25.85;;;;;;;-1.14;100.00;101283.81;5115411;28;20505;-75
2021/01/17 07:58:32;;;;;;;47.65;26.67;;;;;;;-0.89;100.00;101286.47;5116143;28;20027;-74
2021/01/17 08:01:30;;;;;;;48.35;25.73;;;;;;;-0.78;100.00;101277.47;5115269;28;20023;-75
2021/01/17 08:04:17;;;;;;;53.50;28.08;;;;;;;-0.92;100.00;101287.25;5114678;28;20053;-74
2021/01/17 08:07:03;;;;;;;51.88;27.35;;;;;;;-0.18;100.00;101282.22;5115266;28;20456;-73
2021/01/17 08:09:49;;;;;;;52.58;28.38;;;;;;;-0.34;100.00;101277.34;5114924;28;20371;-74
2021/01/17 08:12:37;;;;;;;50.40;29.20;;;;;;;-0.03;100.00;101280.16;5115591;28;20023;-75
2021/01/17 08:15:28;;;;;;;48.95;27.42;;;;;;;-0.42;100.00;101281.34;5114676;28;20066;-73
2021/01/17 08:18:40;;;;;;;53.58;28.27;;;;;;;-0.63;100.00;101288.31;5114196;28;20051;-74
2021/01/17 08:21:26;;;;;;;52.10;28.08;;;;;;;-0.70;100.00;101292.38;5115022;28;20020;-74
2021/01/17 08:24:12;;;;;;;49.63;26.95;;;;;;;-0.34;100.00;101288.53;5113472;28;20174;-74
2021/01/17 08:26:58;;;;;;;53.25;27.52;;;;;;;-0.28;100.00;101287.88;5114897;28;20035;-74
2021/01/17 08:32:50;;;;;;;55.15;29.35;;;;;;;0.05;100.00;101295.03;5113858;28;20024;-74
2021/01/17 08:35:36;;;;;;;54.60;29.48;;;;;;;0.03;100.00;101305.25;5098851;28;20162;-74
2021/01/17 08:38:22;;;;;;;49.65;27.13;;;;;;;0.08;100.00;101300.28;5113811;28;20172;-73
2021/01/17 08:41:08;;;;;;;54.95;28.02;;;;;;;-0.07;100.00;101301.47;5114327;28;20367;-75
2021/01/17 08:43:56;;;;;;;54.20;27.48;;;;;;;-0.27;100.00;101311.06;5114224;28;20030;-74
2021/01/17 08:46:42;;;;;;;55.40;26.98;;;;;;;-1.63;100.00;101304.16;5114637;28;20426;-73
2021/01/17 08:49:37;;;;;;;52.50;27.02;;;;;;;-1.06;100.00;101324.44;5114603;28;20467;-73
2021/01/17 08:52:34;;;;;;;56.30;28.67;;;;;;;-1.25;100.00;101318.50;5114062;28;20023;-75
2021/01/17 08:55:36;;;;;;;49.92;25.95;;;;;;;-1.31;100.00;101321.75;5114399;28;20024;-74
2021/01/17 08:58:24;;;;;;;54.35;29.98;;;;;;;-1.10;100.00;101324.25;5114140;28;20023;-74
2021/01/17 09:01:12;;;;;;;56.35;26.88;;;;;;;-1.85;100.00;101322.06;5114083;28;20456;-74
2021/01/17 09:04:00;;;;;;;56.70;29.13;;;;;;;-1.57;100.00;101326.66;5114106;28;20128;-73
2021/01/17 09:06:46;;;;;;;53.35;29.40;;;;;;;-0.74;100.00;101329.09;5114102;28;20425;-75
2021/01/17 09:09:32;;;;;;;56.70;29.00;;;;;;;-0.72;100.00;101326.59;5113491;28;20023;-73
2021/01/17 09:12:19;;;;;;;52.13;27.73;;;;;;;-1.33;100.00;101322.50;5114371;28;20024;-74
2021/01/17 09:15:20;;;;;;;54.33;28.27;;;;;;;-0.52;100.00;101313.59;5113894;28;20455;-74
2021/01/17 09:18:06;;;;;;;52.72;28.52;;;;;;;-1.03;100.00;101310.81;5114160;28;20450;-73
2021/01/17 09:20:53;;;;;;;48.08;25.20;;;;;;;-0.66;100.00;101308.78;5114978;28;20030;-73
2021/01/17 09:23:40;;;;;;;51.80;27.77;;;;;;;-0.33;100.00;101310.88;5114609;28;20075;-74
2021/01/17 09:26:27;;;;;;;50.92;27.35;;;;;;;-0.07;100.00;101302.34;5114345;28;20024;-74
2021/01/17 09:29:20;;;;;;;52.90;27.08;;;;;;;-0.35;100.00;101297.06;5114218;28;20024;-73
2021/01/17 09:32:11;;;;;;;54.83;29.00;;;;;;;-0.55;100.00;101299.75;5099316;28;20426;-73
2021/01/17 09:34:57;;;;;;;54.13;28.33;;;;;;;0.48;100.00;101294.72;5117367;28;20355;-74
2021/01/17 09:37:43;;;;;;;53.67;28.13;;;;;;;0.88;100.00;101299.44;5117548;28;20015;-75
2021/01/17 09:40:29;;;;;;;50.40;26.80;;;;;;;0.60;100.00;101297.69;5102697;28;20020;-73
2021/01/17 09:43:16;;;;;;;51.78;27.60;;;;;;;0.78;100.00;101295.69;5118066;28;20031;-74
2021/01/17 09:46:02;;;;;;;50.30;27.88;;;;;;;0.04;100.00;101295.84;5102996;28;20048;-73
2021/01/17 09:48:55;;;;;;;41.42;22.60;;;;;;;0.20;100.00;101294.66;5118378;28;20114;-73
2021/01/17 09:51:45;;;;;;;39.13;21.30;;;;;;;-0.36;100.00;101286.75;5117381;28;20030;-75
2021/01/17 09:54:36;;;;;;;40.83;21.85;;;;;;;-0.87;100.00;101295.13;5118122;28;20038;-74
2021/01/17 09:57:24;;;;;;;41.85;23.30;;;;;;;-0.86;100.00;101294.31;5117253;28;20019;-75
2021/01/17 10:00:22;;;;;;;43.28;23.35;;;;;;;-0.03;100.00;101290.47;5117488;28;20024;-74
2021/01/17 10:03:10;;;;;;;49.03;26.45;;;;;;;0.18;100.00;101286.03;5102850;28;20031;-74
2021/01/17 10:05:55;;;;;;;46.95;24.80;;;;;;;0.26;100.00;101274.25;5102727;28;20023;-74
2021/01/17 10:08:42;;;;;;;46.97;25.40;;;;;;;-0.12;100.00;101274.72;5117819;28;20471;-74
2021/01/17 10:11:27;;;;;;;51.47;25.73;;;;;;;-0.37;100.00;101269.50;5117217;28;20028;-75
2021/01/17 10:14:21;;;;;;;41.95;22.30;;;;;;;0.15;100.00;101277.31;5117110;28;20020;-74
2021/01/17 10:17:07;;;;;;;36.58;18.95;;;;;;;-0.56;100.00;101267.16;5116478;28;20019;-74
2021/01/17 10:19:53;;;;;;;35.30;20.75;;;;;;;0.45;100.00;101266.31;5117582;28;20519;-74
2021/01/17 10:22:39;;;;;;;38.45;20.88;;;;;;;1.11;100.00;101273.47;5116780;28;20104;-73
2021/01/17 10:25:26;;;;;;;43.03;24.13;;;;;;;0.89;100.00;101277.97;5116571;28;20459;-74
2021/01/17 10:28:13;;;;;;;47.10;26.17;;;;;;;0.86;100.00;101271.03;5101714;28;20046;-74
2021/01/17 10:31:00;;;;;;;38.35;22.55;;;;;;;0.44;100.00;101277.41;5117107;28;20032;-74
2021/01/17 10:33:46;;;;;;;38.45;21.02;;;;;;;-0.24;100.00;101279.44;5116124;28;20375;-74
2021/01/17 10:36:33;;;;;;;38.95;21.77;;;;;;;0.21;100.00;101280.09;5116429;28;20080;-74
2021/01/17 10:39:20;;;;;;;48.25;25.50;;;;;;;-0.24;100.00;101277.72;5116372;28;20355;-73
2021/01/17 10:42:07;;;;;;;43.42;24.27;;;;;;;0.13;100.00;101282.41;5116670;28;20027;-74
2021/01/17 10:45:13;;;;;;;67.07;33.38;;;;;;;-0.45;100.00;101273.53;5115991;28;20050;-74
2021/01/17 10:48:10;;;;;;;64.80;34.38;;;;;;;0.16;100.00;101290.22;5116641;28;20436;-75
2021/01/17 10:51:07;;;;;;;66.38;34.60;;;;;;;0.03;100.00;101275.19;5116493;28;20023;-74
2021/01/17 10:53:54;;;;;;;63.72;32.25;;;;;;;-0.15;100.00;101279.75;5115946;28;20031;-74
2021/01/17 10:56:41;;;;;;;60.70;32.90;;;;;;;0.20;100.00;101276.63;5116816;28;20481;-74
2021/01/17 10:59:29;;;;;;;58.42;30.58;;;;;;;0.70;100.00;101279.13;5116247;28;20031;-75
2021/01/17 11:02:24;;;;;;;62.47;32.17;;;;;;;0.78;100.00;101272.50;5100103;28;20035;-74
2021/01/17 11:05:10;;;;;;;50.58;27.08;;;;;;;0.92;100.00;101270.31;5101300;28;20035;-74
2021/01/17 11:07:56;;;;;;;41.92;23.60;;;;;;;1.35;100.00;101274.19;5116804;28;20063;-74
2021/01/17 11:10:42;;;;;;;39.30;22.95;;;;;;;0.42;100.00;101271.34;5101885;28;20359;-74
2021/01/17 11:13:28;;;;;;;45.63;22.35;;;;;;;0.11;100.00;101267.75;5115764;28;20146;-75
2021/01/17 11:16:13;;;;;;;38.75;21.67;;;;;;;0.20;100.00;101274.03;5115025;28;20455;-74
2021/01/17 11:18:59;;;;;;;41.80;23.00;;;;;;;0.16;100.00;101268.75;5102274;28;20442;-74
2021/01/17 11:21:46;;;;;;;40.53;22.08;;;;;;;0.26;100.00;101258.81;5115637;28;20466;-74
2021/01/17 11:24:41;;;;;;;38.10;21.80;;;;;;;0.58;100.00;101262.38;5100949;28;20078;-74
2021/01/17 11:27:35;;;;;;;40.45;22.63;;;;;;;0.35;100.00;101269.41;5115872;28;20031;-74
2021/01/17 11:30:25;;;;;;;42.22;24.45;;;;;;;-0.18;100.00;101264.19;5101037;28;20035;-74
2021/01/17 11:33:12;;;;;;;43.92;24.13;;;;;;;-0.20;100.00;101258.13;5114309;28;20058;-73
2021/01/17 11:36:01;;;;;;;41.05;22.52;;;;;;;0.22;100.00;101261.22;5116115;28;20455;-74
2021/01/17 11:38:50;;;;;;;43.60;25.00;;;;;;;0.08;100.00;101268.50;5115498;28;20027;-74
2021/01/17 11:41:37;;;;;;;50.33;25.83;;;;;;;-0.42;100.00;101253.94;5115287;28;20027;-75
2021/01/17 11:44:26;;;;;;;53.65;27.95;;;;;;;-0.26;100.00;101269.09;5100198;28;20019;-75
2021/01/17 11:47:18;;;;;;;52.22;28.15;;;;;;;-0.15;100.00;101264.28;5114097;28;20052;-74
2021/01/17 11:50:14;;;;;;;48.83;25.88;;;;;;;-0.02;100.00;101256.16;5115340;28;20065;-75
2021/01/17 11:53:03;;;;;;;47.80;26.27;;;;;;;-0.41;100.00;101247.97;5100530;28;20030;-74
2021/01/17 11:55:50;;;;;;;47.83;25.65;;;;;;;-0.76;100.00;101250.13;5099771;28;20032;-74
2021/01/17 11:58:40;;;;;;;53.47;27.90;;;;;;;-0.74;100.00;101257.06;5099448;28;20034;-74
2021/01/17 12:01:26;;;;;;;53.75;28.52;;;;;;;-0.33;100.00;101259.38;5115911;28;20370;-75
2021/01/17 12:04:14;;;;;;;55.22;27.95;;;;;;;-0.14;100.00;101258.31;5099922;28;20439;-75
2021/01/17 12:07:05;;;;;;;57.22;31.20;;;;;;;0.06;100.00;101259.84;5115237;28;20027;-74
2021/01/17 12:10:10;;;;;;;53.30;26.88;;;;;;;0.00;100.00;101264.81;5114790;28;20027;-74
2021/01/17 12:12:55;;;;;;;54.35;27.80;;;;;;;-0.25;100.00;101265.69;5114813;28;20039;-74
2021/01/17 12:15:41;;;;;;;55.90;28.75;;;;;;;-0.28;100.00;101265.56;5115403;28;20023;-74
2021/01/17 12:18:27;;;;;;;48.80;26.88;;;;;;;-0.51;100.00;101273.31;5100686;28;20110;-73
2021/01/17 12:21:20;;;;;;;47.60;25.48;;;;;;;-0.79;100.00;101270.56;5115581;28;20023;-74
2021/01/17 12:24:09;;;;;;;57.65;29.80;;;;;;;-0.61;100.00;101266.97;5099894;28;20039;-74
2021/01/17 12:26:55;;;;;;;42.08;22.80;;;;;;;-0.34;100.00;101261.91;5087392;28;20019;-74
2021/01/17 12:29:41;;;;;;;42.58;23.27;;;;;;;0.06;100.00;101259.84;5114753;28;20050;-73
2021/01/17 12:32:27;;;;;;;44.75;23.10;;;;;;;0.15;100.00;101264.44;5114415;28;20086;-75
2021/01/17 12:35:12;;;;;;;52.53;27.80;;;;;;;0.27;100.00;101270.00;5114104;28;20019;-75
2021/01/17 12:37:59;;;;;;;53.05;27.90;;;;;;;-0.48;100.00;101266.56;5114479;28;20061;-74
2021/01/17 12:40:44;;;;;;;54.13;29.20;;;;;;;-0.27;100.00;101269.03;5098474;28;20019;-74
2021/01/17 12:43:30;;;;;;;48.22;26.75;;;;;;;-0.77;100.00;101268.91;5113306;28;20027;-75